Pagina principală
METAR-TAF:

METAR-TAF

Aeroporturi :

Pittsburg, Kansas, Statele Unite ale Americii

Latitudine: 37-26-58N, longitudine: 094-43-52W, elevație: 290 m

Observații meteo curente

Raportul a fost făcut în urmă cu 28 de minute, la 22:55 UTC
Vânt 13 kt de la Sud/Sud-vest cu rafale de până la 20 kt
Temperatură 33°C
Umiditate 46%
Presiune 1012 hPa
Vizibilitate: 16.1 km
Cer senin

METAR: KPTS 222255Z AUTO 20013G20KT 10SM CLR 33/20 A2987 RMK AO2 T03300200 PWINO

Ora: 18:23 (23:23 UTC)


TAF: lipsă

Observații și prognoze meteo pentru peste 4.000 de aeroporturi (rapoarte METAR și TAF).

Stațiile disponibile sunt reprezentate pe hartă prin puncte galbene și roșii.

Țineți indicatorul mouse-ului pe punctul dorit pentru a vedea denumirea stației.

Apoi, faceți clic pentru a vedea observațiile și prognozele meteorologice.

Pentru a schimba harta: Pentru mărire, faceți clic pe butoanele verzi cu cruce neagră; pentru micșorare, pe butonul verde cu o liniuță; pentru hărți învecinate, pe săgețile verzi.


METAR-TAF: